Terminal Aerodrome Forecast
Issued by NWS

Current Version | Previous Version | Text Only | Print | Product List | Glossary On
Versions: 1 2 3 4 5 6 7 8 9 10 11 12 13 14
000
FTUS46 KSTO 281100
TAFSMF
TAF
KSMF 281139Z 2812/2912 15008KT P6SM SKC
     FM281600 VRB05KT P6SM SKC
     FM282100 24006KT P6SM SKC
     FM290300 18008KT P6SM SKC=

USA.gov is the U.S. government's official web portal to all federal, state and local government web resources and services.